sensor_id;sensor_type;location;lat;lon;timestamp;P1;durP1;ratioP1;P2;durP2;ratioP2
63975;SDS011;50167;47.958;21.780;2023-06-26T00:01:29;12.47;;;6.83;;
63975;SDS011;50167;47.958;21.780;2023-06-26T00:03:57;8.60;;;6.87;;
63975;SDS011;50167;47.958;21.780;2023-06-26T00:06:24;9.43;;;6.77;;
63975;SDS011;50167;47.958;21.780;2023-06-26T00:08:51;9.17;;;6.60;;
63975;SDS011;50167;47.958;21.780;2023-06-26T00:11:19;9.30;;;7.30;;
63975;SDS011;50167;47.958;21.780;2023-06-26T00:13:47;10.70;;;6.60;;
63975;SDS011;50167;47.958;21.780;2023-06-26T00:16:13;10.10;;;6.37;;
63975;SDS011;50167;47.958;21.780;2023-06-26T00:18:40;11.50;;;6.40;;
63975;SDS011;50167;47.958;21.780;2023-06-26T00:21:06;7.13;;;6.43;;
63975;SDS011;50167;47.958;21.780;2023-06-26T00:23:32;13.33;;;7.27;;
63975;SDS011;50167;47.958;21.780;2023-06-26T00:26:00;10.20;;;7.80;;
63975;SDS011;50167;47.958;21.780;2023-06-26T00:28:26;10.57;;;6.43;;
63975;SDS011;50167;47.958;21.780;2023-06-26T00:30:52;8.37;;;6.40;;
63975;SDS011;50167;47.958;21.780;2023-06-26T00:33:18;14.07;;;6.67;;
63975;SDS011;50167;47.958;21.780;2023-06-26T00:35:45;15.30;;;6.67;;
63975;SDS011;50167;47.958;21.780;2023-06-26T00:38:11;9.83;;;7.40;;
63975;SDS011;50167;47.958;21.780;2023-06-26T00:40:37;12.30;;;5.83;;
63975;SDS011;50167;47.958;21.780;2023-06-26T00:43:03;9.43;;;6.57;;
63975;SDS011;50167;47.958;21.780;2023-06-26T00:45:29;9.37;;;6.10;;
63975;SDS011;50167;47.958;21.780;2023-06-26T00:47:56;7.50;;;6.30;;
63975;SDS011;50167;47.958;21.780;2023-06-26T00:50:22;16.10;;;7.20;;
63975;SDS011;50167;47.958;21.780;2023-06-26T00:52:49;7.53;;;6.60;;
63975;SDS011;50167;47.958;21.780;2023-06-26T00:55:15;12.70;;;7.27;;
63975;SDS011;50167;47.958;21.780;2023-06-26T00:57:42;9.87;;;7.20;;
63975;SDS011;50167;47.958;21.780;2023-06-26T01:00:10;8.70;;;6.43;;
63975;SDS011;50167;47.958;21.780;2023-06-26T01:02:38;13.90;;;6.57;;
63975;SDS011;50167;47.958;21.780;2023-06-26T01:05:05;9.27;;;6.57;;
63975;SDS011;50167;47.958;21.780;2023-06-26T01:07:32;8.47;;;6.27;;
63975;SDS011;50167;47.958;21.780;2023-06-26T01:10:06;8.53;;;6.77;;
63975;SDS011;50167;47.958;21.780;2023-06-26T01:12:31;11.17;;;6.90;;
63975;SDS011;50167;47.958;21.780;2023-06-26T01:14:59;13.23;;;5.53;;
63975;SDS011;50167;47.958;21.780;2023-06-26T01:17:30;12.43;;;6.87;;
63975;SDS011;50167;47.958;21.780;2023-06-26T01:20:01;8.20;;;6.00;;
63975;SDS011;50167;47.958;21.780;2023-06-26T01:22:33;9.47;;;6.20;;
63975;SDS011;50167;47.958;21.780;2023-06-26T01:28:08;8.70;;;6.03;;
63975;SDS011;50167;47.958;21.780;2023-06-26T01:30:32;11.67;;;6.27;;
63975;SDS011;50167;47.958;21.780;2023-06-26T01:33:02;10.48;;;6.65;;
63975;SDS011;50167;47.958;21.780;2023-06-26T01:35:29;8.90;;;6.87;;
63975;SDS011;50167;47.958;21.780;2023-06-26T01:40:44;11.83;;;7.27;;
63975;SDS011;50167;47.958;21.780;2023-06-26T01:43:19;8.67;;;6.17;;
63975;SDS011;50167;47.958;21.780;2023-06-26T01:45:58;8.63;;;6.90;;
63975;SDS011;50167;47.958;21.780;2023-06-26T01:48:36;9.57;;;6.20;;
63975;SDS011;50167;47.958;21.780;2023-06-26T01:51:20;11.37;;;7.67;;
63975;SDS011;50167;47.958;21.780;2023-06-26T01:53:50;12.53;;;7.27;;
63975;SDS011;50167;47.958;21.780;2023-06-26T01:56:19;12.65;;;6.33;;
63975;SDS011;50167;47.958;21.780;2023-06-26T01:58:47;14.83;;;6.93;;
63975;SDS011;50167;47.958;21.780;2023-06-26T02:01:15;11.20;;;6.83;;
63975;SDS011;50167;47.958;21.780;2023-06-26T02:03:41;12.03;;;7.20;;
63975;SDS011;50167;47.958;21.780;2023-06-26T02:06:07;10.80;;;6.47;;
63975;SDS011;50167;47.958;21.780;2023-06-26T02:08:35;10.50;;;7.13;;
63975;SDS011;50167;47.958;21.780;2023-06-26T02:11:01;13.57;;;5.80;;
63975;SDS011;50167;47.958;21.780;2023-06-26T02:13:28;10.67;;;6.43;;
63975;SDS011;50167;47.958;21.780;2023-06-26T02:15:54;8.27;;;6.43;;
63975;SDS011;50167;47.958;21.780;2023-06-26T02:18:21;10.23;;;5.90;;
63975;SDS011;50167;47.958;21.780;2023-06-26T02:20:48;8.50;;;5.97;;
63975;SDS011;50167;47.958;21.780;2023-06-26T02:23:14;10.70;;;6.23;;
63975;SDS011;50167;47.958;21.780;2023-06-26T02:25:40;13.93;;;7.30;;
63975;SDS011;50167;47.958;21.780;2023-06-26T02:28:06;14.83;;;6.57;;
63975;SDS011;50167;47.958;21.780;2023-06-26T02:30:33;10.30;;;6.23;;
63975;SDS011;50167;47.958;21.780;2023-06-26T02:32:59;13.93;;;6.73;;
63975;SDS011;50167;47.958;21.780;2023-06-26T02:35:25;9.63;;;6.63;;
63975;SDS011;50167;47.958;21.780;2023-06-26T02:37:52;10.87;;;6.90;;
63975;SDS011;50167;47.958;21.780;2023-06-26T02:40:18;6.70;;;5.80;;
63975;SDS011;50167;47.958;21.780;2023-06-26T02:42:44;12.27;;;7.10;;
63975;SDS011;50167;47.958;21.780;2023-06-26T02:45:10;10.87;;;7.07;;
63975;SDS011;50167;47.958;21.780;2023-06-26T02:47:36;12.07;;;7.10;;
63975;SDS011;50167;47.958;21.780;2023-06-26T02:50:05;10.17;;;7.30;;
63975;SDS011;50167;47.958;21.780;2023-06-26T02:52:34;11.90;;;7.00;;
63975;SDS011;50167;47.958;21.780;2023-06-26T02:55:00;15.67;;;6.47;;
63975;SDS011;50167;47.958;21.780;2023-06-26T02:57:26;10.60;;;6.63;;
63975;SDS011;50167;47.958;21.780;2023-06-26T02:59:52;9.67;;;6.53;;
63975;SDS011;50167;47.958;21.780;2023-06-26T03:02:19;11.47;;;6.50;;
63975;SDS011;50167;47.958;21.780;2023-06-26T03:04:45;8.87;;;7.20;;
63975;SDS011;50167;47.958;21.780;2023-06-26T03:07:11;10.40;;;7.33;;
63975;SDS011;50167;47.958;21.780;2023-06-26T03:09:37;6.93;;;6.03;;
63975;SDS011;50167;47.958;21.780;2023-06-26T03:12:03;10.63;;;6.80;;
63975;SDS011;50167;47.958;21.780;2023-06-26T03:14:30;13.60;;;6.20;;
63975;SDS011;50167;47.958;21.780;2023-06-26T03:16:57;12.50;;;6.63;;
63975;SDS011;50167;47.958;21.780;2023-06-26T03:19:24;9.83;;;6.40;;
63975;SDS011;50167;47.958;21.780;2023-06-26T03:21:50;14.33;;;7.93;;
63975;SDS011;50167;47.958;21.780;2023-06-26T03:24:17;11.90;;;7.60;;
63975;SDS011;50167;47.958;21.780;2023-06-26T03:26:43;17.30;;;7.50;;
63975;SDS011;50167;47.958;21.780;2023-06-26T03:29:09;13.17;;;7.33;;
63975;SDS011;50167;47.958;21.780;2023-06-26T03:31:36;15.47;;;8.07;;
63975;SDS011;50167;47.958;21.780;2023-06-26T03:34:02;8.03;;;6.20;;
63975;SDS011;50167;47.958;21.780;2023-06-26T03:36:28;9.00;;;6.20;;
63975;SDS011;50167;47.958;21.780;2023-06-26T03:38:54;8.60;;;6.23;;
63975;SDS011;50167;47.958;21.780;2023-06-26T03:41:22;12.67;;;6.90;;
63975;SDS011;50167;47.958;21.780;2023-06-26T03:43:49;7.30;;;6.53;;
63975;SDS011;50167;47.958;21.780;2023-06-26T03:46:15;10.83;;;6.20;;
63975;SDS011;50167;47.958;21.780;2023-06-26T03:48:42;25.73;;;8.23;;
63975;SDS011;50167;47.958;21.780;2023-06-26T03:51:08;9.27;;;6.70;;
63975;SDS011;50167;47.958;21.780;2023-06-26T03:53:34;10.57;;;7.30;;
63975;SDS011;50167;47.958;21.780;2023-06-26T03:56:00;12.13;;;6.83;;
63975;SDS011;50167;47.958;21.780;2023-06-26T03:58:26;23.40;;;7.50;;
63975;SDS011;50167;47.958;21.780;2023-06-26T04:00:52;12.17;;;8.00;;
63975;SDS011;50167;47.958;21.780;2023-06-26T04:03:19;12.60;;;7.70;;
63975;SDS011;50167;47.958;21.780;2023-06-26T04:05:45;11.63;;;7.00;;
63975;SDS011;50167;47.958;21.780;2023-06-26T04:08:11;11.63;;;6.63;;
63975;SDS011;50167;47.958;21.780;2023-06-26T04:10:38;11.47;;;7.53;;
63975;SDS011;50167;47.958;21.780;2023-06-26T04:13:04;16.20;;;7.60;;
63975;SDS011;50167;47.958;21.780;2023-06-26T04:15:31;10.93;;;7.20;;
63975;SDS011;50167;47.958;21.780;2023-06-26T04:17:57;10.13;;;7.30;;
63975;SDS011;50167;47.958;21.780;2023-06-26T04:20:23;8.73;;;6.47;;
63975;SDS011;50167;47.958;21.780;2023-06-26T04:22:49;13.90;;;7.60;;
63975;SDS011;50167;47.958;21.780;2023-06-26T04:25:15;8.17;;;6.43;;
63975;SDS011;50167;47.958;21.780;2023-06-26T04:27:41;15.47;;;8.73;;
63975;SDS011;50167;47.958;21.780;2023-06-26T04:30:09;11.53;;;7.53;;
63975;SDS011;50167;47.958;21.780;2023-06-26T04:32:37;12.82;;;8.40;;
63975;SDS011;50167;47.958;21.780;2023-06-26T04:35:04;14.33;;;7.83;;
63975;SDS011;50167;47.958;21.780;2023-06-26T04:37:30;14.27;;;9.30;;
63975;SDS011;50167;47.958;21.780;2023-06-26T04:39:57;13.20;;;7.63;;
63975;SDS011;50167;47.958;21.780;2023-06-26T04:42:23;23.57;;;8.30;;
63975;SDS011;50167;47.958;21.780;2023-06-26T04:44:49;12.97;;;8.03;;
63975;SDS011;50167;47.958;21.780;2023-06-26T04:47:15;13.23;;;8.90;;
63975;SDS011;50167;47.958;21.780;2023-06-26T04:49:41;11.05;;;7.95;;
63975;SDS011;50167;47.958;21.780;2023-06-26T04:52:09;14.47;;;7.45;;
63975;SDS011;50167;47.958;21.780;2023-06-26T04:54:38;10.68;;;8.30;;
63975;SDS011;50167;47.958;21.780;2023-06-26T04:57:04;10.13;;;7.53;;
63975;SDS011;50167;47.958;21.780;2023-06-26T04:59:31;10.05;;;7.87;;
63975;SDS011;50167;47.958;21.780;2023-06-26T05:01:57;10.38;;;8.28;;
63975;SDS011;50167;47.958;21.780;2023-06-26T05:04:23;8.20;;;6.95;;
63975;SDS011;50167;47.958;21.780;2023-06-26T05:06:51;12.13;;;8.50;;
63975;SDS011;50167;47.958;21.780;2023-06-26T05:09:18;8.80;;;7.85;;
63975;SDS011;50167;47.958;21.780;2023-06-26T05:15:44;11.50;;;8.38;;
63975;SDS011;50167;47.958;21.780;2023-06-26T05:18:11;10.38;;;8.10;;
63975;SDS011;50167;47.958;21.780;2023-06-26T05:20:38;9.25;;;7.65;;
63975;SDS011;50167;47.958;21.780;2023-06-26T05:23:05;11.30;;;8.18;;
63975;SDS011;50167;47.958;21.780;2023-06-26T05:25:31;10.78;;;8.28;;
63975;SDS011;50167;47.958;21.780;2023-06-26T05:27:59;10.82;;;8.20;;
63975;SDS011;50167;47.958;21.780;2023-06-26T05:30:26;14.30;;;8.50;;
63975;SDS011;50167;47.958;21.780;2023-06-26T05:32:53;12.25;;;8.83;;
63975;SDS011;50167;47.958;21.780;2023-06-26T05:35:21;19.50;;;7.80;;
63975;SDS011;50167;47.958;21.780;2023-06-26T05:37:48;9.55;;;6.90;;
63975;SDS011;50167;47.958;21.780;2023-06-26T05:40:16;11.15;;;8.08;;
63975;SDS011;50167;47.958;21.780;2023-06-26T05:42:44;13.62;;;8.05;;
63975;SDS011;50167;47.958;21.780;2023-06-26T05:45:11;8.50;;;7.30;;
63975;SDS011;50167;47.958;21.780;2023-06-26T05:47:38;8.40;;;7.42;;
63975;SDS011;50167;47.958;21.780;2023-06-26T05:50:04;12.20;;;8.28;;
63975;SDS011;50167;47.958;21.780;2023-06-26T05:52:32;10.18;;;7.53;;
63975;SDS011;50167;47.958;21.780;2023-06-26T05:54:59;8.10;;;7.20;;
63975;SDS011;50167;47.958;21.780;2023-06-26T05:57:27;14.18;;;8.60;;
63975;SDS011;50167;47.958;21.780;2023-06-26T05:59:55;9.70;;;7.03;;
63975;SDS011;50167;47.958;21.780;2023-06-26T06:02:22;12.68;;;7.67;;
63975;SDS011;50167;47.958;21.780;2023-06-26T06:04:48;16.55;;;7.30;;
63975;SDS011;50167;47.958;21.780;2023-06-26T06:07:14;11.20;;;7.10;;
63975;SDS011;50167;47.958;21.780;2023-06-26T06:09:40;18.10;;;10.13;;
63975;SDS011;50167;47.958;21.780;2023-06-26T06:12:07;15.48;;;8.28;;
63975;SDS011;50167;47.958;21.780;2023-06-26T06:14:34;10.75;;;7.00;;
63975;SDS011;50167;47.958;21.780;2023-06-26T06:17:00;8.08;;;7.08;;
63975;SDS011;50167;47.958;21.780;2023-06-26T06:19:27;11.20;;;7.75;;
63975;SDS011;50167;47.958;21.780;2023-06-26T06:21:53;12.25;;;8.15;;
63975;SDS011;50167;47.958;21.780;2023-06-26T06:24:20;10.28;;;7.33;;
63975;SDS011;50167;47.958;21.780;2023-06-26T06:26:46;8.13;;;7.03;;
63975;SDS011;50167;47.958;21.780;2023-06-26T06:29:12;9.15;;;7.85;;
63975;SDS011;50167;47.958;21.780;2023-06-26T06:31:38;10.58;;;7.08;;
63975;SDS011;50167;47.958;21.780;2023-06-26T06:34:04;12.90;;;6.75;;
63975;SDS011;50167;47.958;21.780;2023-06-26T06:36:31;8.83;;;7.07;;
63975;SDS011;50167;47.958;21.780;2023-06-26T06:38:57;10.18;;;6.53;;
63975;SDS011;50167;47.958;21.780;2023-06-26T06:41:23;11.45;;;7.28;;
63975;SDS011;50167;47.958;21.780;2023-06-26T06:43:49;9.53;;;6.72;;
63975;SDS011;50167;47.958;21.780;2023-06-26T06:46:16;8.05;;;6.42;;
63975;SDS011;50167;47.958;21.780;2023-06-26T06:48:42;9.68;;;7.65;;
63975;SDS011;50167;47.958;21.780;2023-06-26T06:51:09;7.47;;;6.60;;
63975;SDS011;50167;47.958;21.780;2023-06-26T06:53:35;11.15;;;7.08;;
63975;SDS011;50167;47.958;21.780;2023-06-26T06:56:01;11.08;;;7.35;;
63975;SDS011;50167;47.958;21.780;2023-06-26T06:58:27;7.60;;;6.80;;
63975;SDS011;50167;47.958;21.780;2023-06-26T07:00:54;11.35;;;8.48;;
63975;SDS011;50167;47.958;21.780;2023-06-26T07:03:21;9.28;;;7.28;;
63975;SDS011;50167;47.958;21.780;2023-06-26T07:05:47;9.85;;;7.20;;
63975;SDS011;50167;47.958;21.780;2023-06-26T07:08:13;11.97;;;7.03;;
63975;SDS011;50167;47.958;21.780;2023-06-26T07:10:40;16.50;;;7.08;;
63975;SDS011;50167;47.958;21.780;2023-06-26T07:13:06;8.90;;;7.33;;
63975;SDS011;50167;47.958;21.780;2023-06-26T07:15:32;12.88;;;7.35;;
63975;SDS011;50167;47.958;21.780;2023-06-26T07:21:58;12.60;;;6.70;;
63975;SDS011;50167;47.958;21.780;2023-06-26T07:24:24;10.82;;;7.47;;
63975;SDS011;50167;47.958;21.780;2023-06-26T07:26:51;10.78;;;6.35;;
63975;SDS011;50167;47.958;21.780;2023-06-26T07:29:17;9.30;;;6.50;;
63975;SDS011;50167;47.958;21.780;2023-06-26T07:31:43;9.20;;;6.62;;
63975;SDS011;50167;47.958;21.780;2023-06-26T07:34:10;8.25;;;6.15;;
63975;SDS011;50167;47.958;21.780;2023-06-26T07:36:37;14.68;;;5.67;;
63975;SDS011;50167;47.958;21.780;2023-06-26T07:39:03;8.78;;;6.72;;
63975;SDS011;50167;47.958;21.780;2023-06-26T07:41:29;11.90;;;6.12;;
63975;SDS011;50167;47.958;21.780;2023-06-26T07:43:57;11.18;;;7.47;;
63975;SDS011;50167;47.958;21.780;2023-06-26T07:46:24;8.65;;;6.15;;
63975;SDS011;50167;47.958;21.780;2023-06-26T07:48:50;10.95;;;7.00;;
63975;SDS011;50167;47.958;21.780;2023-06-26T07:51:17;8.05;;;5.05;;
63975;SDS011;50167;47.958;21.780;2023-06-26T07:53:43;8.65;;;6.20;;
63975;SDS011;50167;47.958;21.780;2023-06-26T07:56:09;8.20;;;6.15;;
63975;SDS011;50167;47.958;21.780;2023-06-26T07:58:35;8.10;;;6.03;;
63975;SDS011;50167;47.958;21.780;2023-06-26T08:01:02;15.15;;;6.22;;
63975;SDS011;50167;47.958;21.780;2023-06-26T08:03:28;10.58;;;6.40;;
63975;SDS011;50167;47.958;21.780;2023-06-26T08:05:54;16.10;;;6.03;;
63975;SDS011;50167;47.958;21.780;2023-06-26T08:08:20;9.85;;;5.67;;
63975;SDS011;50167;47.958;21.780;2023-06-26T08:10:47;6.03;;;5.42;;
63975;SDS011;50167;47.958;21.780;2023-06-26T08:13:13;11.03;;;5.47;;
63975;SDS011;50167;47.958;21.780;2023-06-26T08:15:39;9.10;;;5.67;;
63975;SDS011;50167;47.958;21.780;2023-06-26T08:18:05;11.60;;;5.70;;
63975;SDS011;50167;47.958;21.780;2023-06-26T08:20:31;8.45;;;5.20;;
63975;SDS011;50167;47.958;21.780;2023-06-26T08:22:58;9.38;;;5.87;;
63975;SDS011;50167;47.958;21.780;2023-06-26T08:25:24;9.30;;;5.53;;
63975;SDS011;50167;47.958;21.780;2023-06-26T08:27:50;6.47;;;5.55;;
63975;SDS011;50167;47.958;21.780;2023-06-26T08:30:18;6.50;;;5.83;;
63975;SDS011;50167;47.958;21.780;2023-06-26T08:32:44;6.17;;;5.58;;
63975;SDS011;50167;47.958;21.780;2023-06-26T08:35:10;8.68;;;5.10;;
63975;SDS011;50167;47.958;21.780;2023-06-26T08:37:46;10.48;;;5.72;;
63975;SDS011;50167;47.958;21.780;2023-06-26T08:40:12;8.80;;;5.20;;
63975;SDS011;50167;47.958;21.780;2023-06-26T08:42:44;6.95;;;5.28;;
63975;SDS011;50167;47.958;21.780;2023-06-26T08:45:10;7.50;;;5.20;;
63975;SDS011;50167;47.958;21.780;2023-06-26T08:47:37;10.40;;;5.75;;
63975;SDS011;50167;47.958;21.780;2023-06-26T08:50:08;6.53;;;5.40;;
63975;SDS011;50167;47.958;21.780;2023-06-26T08:52:56;12.68;;;5.55;;
63975;SDS011;50167;47.958;21.780;2023-06-26T08:55:54;6.30;;;5.15;;
63975;SDS011;50167;47.958;21.780;2023-06-26T08:58:36;10.85;;;5.65;;
63975;SDS011;50167;47.958;21.780;2023-06-26T09:01:04;8.60;;;5.47;;
63975;SDS011;50167;47.958;21.780;2023-06-26T09:03:31;6.72;;;5.20;;
63975;SDS011;50167;47.958;21.780;2023-06-26T09:05:58;8.13;;;5.75;;
63975;SDS011;50167;47.958;21.780;2023-06-26T09:08:25;9.88;;;4.17;;
63975;SDS011;50167;47.958;21.780;2023-06-26T09:10:53;7.10;;;5.12;;
63975;SDS011;50167;47.958;21.780;2023-06-26T09:13:19;7.08;;;5.42;;
63975;SDS011;50167;47.958;21.780;2023-06-26T09:15:46;5.87;;;5.03;;
63975;SDS011;50167;47.958;21.780;2023-06-26T09:18:12;7.35;;;4.78;;
63975;SDS011;50167;47.958;21.780;2023-06-26T09:20:40;9.75;;;5.25;;
63975;SDS011;50167;47.958;21.780;2023-06-26T09:23:07;6.33;;;4.90;;
63975;SDS011;50167;47.958;21.780;2023-06-26T09:25:33;4.95;;;3.92;;
63975;SDS011;50167;47.958;21.780;2023-06-26T09:28:01;4.72;;;4.33;;
63975;SDS011;50167;47.958;21.780;2023-06-26T09:30:28;6.78;;;4.95;;
63975;SDS011;50167;47.958;21.780;2023-06-26T09:32:56;7.58;;;4.78;;
63975;SDS011;50167;47.958;21.780;2023-06-26T09:35:23;5.80;;;4.37;;
63975;SDS011;50167;47.958;21.780;2023-06-26T09:37:51;7.58;;;5.30;;
63975;SDS011;50167;47.958;21.780;2023-06-26T09:40:17;8.20;;;5.15;;
63975;SDS011;50167;47.958;21.780;2023-06-26T09:42:44;7.10;;;4.85;;
63975;SDS011;50167;47.958;21.780;2023-06-26T09:45:17;8.25;;;4.53;;
63975;SDS011;50167;47.958;21.780;2023-06-26T09:47:43;5.85;;;4.55;;
63975;SDS011;50167;47.958;21.780;2023-06-26T09:50:20;5.37;;;4.33;;
63975;SDS011;50167;47.958;21.780;2023-06-26T09:52:50;8.33;;;4.05;;
63975;SDS011;50167;47.958;21.780;2023-06-26T09:55:17;6.65;;;4.20;;
63975;SDS011;50167;47.958;21.780;2023-06-26T09:57:47;5.20;;;3.72;;
63975;SDS011;50167;47.958;21.780;2023-06-26T10:00:16;6.78;;;4.78;;
63975;SDS011;50167;47.958;21.780;2023-06-26T10:02:43;5.30;;;4.00;;
63975;SDS011;50167;47.958;21.780;2023-06-26T10:05:10;5.00;;;4.50;;
63975;SDS011;50167;47.958;21.780;2023-06-26T10:07:37;10.60;;;5.03;;
63975;SDS011;50167;47.958;21.780;2023-06-26T10:10:10;5.75;;;4.70;;
63975;SDS011;50167;47.958;21.780;2023-06-26T10:12:37;5.80;;;4.58;;
63975;SDS011;50167;47.958;21.780;2023-06-26T10:15:03;7.12;;;4.60;;
63975;SDS011;50167;47.958;21.780;2023-06-26T10:17:34;7.40;;;4.80;;
63975;SDS011;50167;47.958;21.780;2023-06-26T10:20:03;5.37;;;4.53;;
63975;SDS011;50167;47.958;21.780;2023-06-26T10:22:33;5.00;;;4.22;;
63975;SDS011;50167;47.958;21.780;2023-06-26T10:25:14;7.65;;;4.70;;
63975;SDS011;50167;47.958;21.780;2023-06-26T10:27:47;5.05;;;3.60;;
63975;SDS011;50167;47.958;21.780;2023-06-26T10:30:18;12.68;;;4.20;;
63975;SDS011;50167;47.958;21.780;2023-06-26T10:32:48;6.33;;;5.00;;
63975;SDS011;50167;47.958;21.780;2023-06-26T10:35:16;5.10;;;4.58;;
63975;SDS011;50167;47.958;21.780;2023-06-26T10:44:56;5.42;;;4.75;;
63975;SDS011;50167;47.958;21.780;2023-06-26T10:59:21;6.95;;;4.60;;
63975;SDS011;50167;47.958;21.780;2023-06-26T11:02:01;6.28;;;4.80;;
63975;SDS011;50167;47.958;21.780;2023-06-26T11:07:16;4.97;;;4.47;;
63975;SDS011;50167;47.958;21.780;2023-06-26T11:09:59;9.05;;;4.25;;
63975;SDS011;50167;47.958;21.780;2023-06-26T11:17:40;9.73;;;4.83;;
63975;SDS011;50167;47.958;21.780;2023-06-26T11:20:08;7.87;;;4.22;;
63975;SDS011;50167;47.958;21.780;2023-06-26T11:22:38;5.30;;;4.20;;
63975;SDS011;50167;47.958;21.780;2023-06-26T11:25:06;8.28;;;4.15;;
63975;SDS011;50167;47.958;21.780;2023-06-26T11:30:08;8.85;;;4.55;;
63975;SDS011;50167;47.958;21.780;2023-06-26T11:32:37;5.85;;;4.25;;
63975;SDS011;50167;47.958;21.780;2023-06-26T11:35:07;4.58;;;4.12;;
63975;SDS011;50167;47.958;21.780;2023-06-26T11:37:35;13.38;;;3.83;;
63975;SDS011;50167;47.958;21.780;2023-06-26T11:40:18;10.05;;;4.20;;
63975;SDS011;50167;47.958;21.780;2023-06-26T11:42:45;6.47;;;3.98;;
63975;SDS011;50167;47.958;21.780;2023-06-26T11:45:12;4.72;;;4.12;;
63975;SDS011;50167;47.958;21.780;2023-06-26T11:47:38;4.22;;;3.83;;
63975;SDS011;50167;47.958;21.780;2023-06-26T11:50:05;4.25;;;3.80;;
63975;SDS011;50167;47.958;21.780;2023-06-26T11:52:32;4.67;;;3.58;;
63975;SDS011;50167;47.958;21.780;2023-06-26T11:54:59;6.50;;;4.45;;
63975;SDS011;50167;47.958;21.780;2023-06-26T11:57:25;5.33;;;3.42;;
63975;SDS011;50167;47.958;21.780;2023-06-26T11:59:51;9.88;;;4.10;;
63975;SDS011;50167;47.958;21.780;2023-06-26T12:02:17;4.22;;;3.77;;
63975;SDS011;50167;47.958;21.780;2023-06-26T12:04:44;4.75;;;3.62;;
63975;SDS011;50167;47.958;21.780;2023-06-26T12:07:11;4.72;;;3.77;;
63975;SDS011;50167;47.958;21.780;2023-06-26T12:09:42;5.58;;;3.87;;
63975;SDS011;50167;47.958;21.780;2023-06-26T12:12:11;5.00;;;3.85;;
63975;SDS011;50167;47.958;21.780;2023-06-26T12:14:39;9.65;;;3.92;;
63975;SDS011;50167;47.958;21.780;2023-06-26T12:17:12;5.67;;;4.22;;
63975;SDS011;50167;47.958;21.780;2023-06-26T12:19:42;6.33;;;3.80;;
63975;SDS011;50167;47.958;21.780;2023-06-26T12:22:15;9.53;;;4.25;;
63975;SDS011;50167;47.958;21.780;2023-06-26T12:24:45;9.90;;;3.67;;
63975;SDS011;50167;47.958;21.780;2023-06-26T12:27:13;6.72;;;4.35;;
63975;SDS011;50167;47.958;21.780;2023-06-26T12:29:51;6.37;;;3.60;;
63975;SDS011;50167;47.958;21.780;2023-06-26T12:32:20;5.42;;;3.95;;
63975;SDS011;50167;47.958;21.780;2023-06-26T12:34:50;7.20;;;4.70;;
63975;SDS011;50167;47.958;21.780;2023-06-26T12:37:17;11.43;;;4.10;;
63975;SDS011;50167;47.958;21.780;2023-06-26T12:39:50;8.58;;;4.10;;
63975;SDS011;50167;47.958;21.780;2023-06-26T12:42:26;6.87;;;5.28;;
63975;SDS011;50167;47.958;21.780;2023-06-26T12:44:54;5.75;;;4.50;;
63975;SDS011;50167;47.958;21.780;2023-06-26T12:47:24;10.20;;;3.42;;
63975;SDS011;50167;47.958;21.780;2023-06-26T12:49:53;6.53;;;4.00;;
63975;SDS011;50167;47.958;21.780;2023-06-26T12:52:20;4.95;;;3.98;;
63975;SDS011;50167;47.958;21.780;2023-06-26T12:54:47;6.90;;;3.98;;
63975;SDS011;50167;47.958;21.780;2023-06-26T12:57:20;5.58;;;3.95;;
63975;SDS011;50167;47.958;21.780;2023-06-26T12:59:51;4.33;;;3.70;;
63975;SDS011;50167;47.958;21.780;2023-06-26T13:02:18;7.47;;;3.83;;
63975;SDS011;50167;47.958;21.780;2023-06-26T13:04:44;6.35;;;4.55;;
63975;SDS011;50167;47.958;21.780;2023-06-26T13:07:10;3.77;;;3.35;;
63975;SDS011;50167;47.958;21.780;2023-06-26T13:09:37;5.42;;;4.67;;
63975;SDS011;50167;47.958;21.780;2023-06-26T13:12:05;4.92;;;4.42;;
63975;SDS011;50167;47.958;21.780;2023-06-26T13:14:32;4.58;;;3.87;;
63975;SDS011;50167;47.958;21.780;2023-06-26T13:17:00;4.25;;;3.58;;
63975;SDS011;50167;47.958;21.780;2023-06-26T13:19:26;5.00;;;3.60;;
63975;SDS011;50167;47.958;21.780;2023-06-26T13:21:53;4.22;;;3.77;;
63975;SDS011;50167;47.958;21.780;2023-06-26T13:24:20;5.47;;;4.17;;
63975;SDS011;50167;47.958;21.780;2023-06-26T13:26:46;5.75;;;3.80;;
63975;SDS011;50167;47.958;21.780;2023-06-26T13:29:12;6.28;;;3.62;;
63975;SDS011;50167;47.958;21.780;2023-06-26T13:31:38;4.42;;;3.52;;
63975;SDS011;50167;47.958;21.780;2023-06-26T13:34:20;4.35;;;3.75;;
63975;SDS011;50167;47.958;21.780;2023-06-26T13:36:48;4.25;;;3.67;;
63975;SDS011;50167;47.958;21.780;2023-06-26T13:39:15;4.78;;;4.08;;
63975;SDS011;50167;47.958;21.780;2023-06-26T13:41:41;5.78;;;4.12;;
63975;SDS011;50167;47.958;21.780;2023-06-26T13:44:07;7.03;;;4.30;;
63975;SDS011;50167;47.958;21.780;2023-06-26T13:46:33;4.90;;;4.10;;
63975;SDS011;50167;47.958;21.780;2023-06-26T13:48:59;4.85;;;4.22;;
63975;SDS011;50167;47.958;21.780;2023-06-26T13:51:26;9.88;;;4.42;;
63975;SDS011;50167;47.958;21.780;2023-06-26T13:53:52;9.65;;;4.10;;
63975;SDS011;50167;47.958;21.780;2023-06-26T13:56:18;8.45;;;3.45;;
63975;SDS011;50167;47.958;21.780;2023-06-26T13:58:49;5.25;;;3.98;;
63975;SDS011;50167;47.958;21.780;2023-06-26T14:01:16;4.17;;;3.65;;
63975;SDS011;50167;47.958;21.780;2023-06-26T14:03:42;7.05;;;4.05;;
63975;SDS011;50167;47.958;21.780;2023-06-26T14:06:11;7.35;;;3.87;;
63975;SDS011;50167;47.958;21.780;2023-06-26T14:08:37;4.60;;;3.95;;
63975;SDS011;50167;47.958;21.780;2023-06-26T14:11:04;17.57;;;4.97;;
63975;SDS011;50167;47.958;21.780;2023-06-26T14:13:30;7.42;;;4.15;;
63975;SDS011;50167;47.958;21.780;2023-06-26T14:15:56;7.53;;;3.83;;
63975;SDS011;50167;47.958;21.780;2023-06-26T14:18:22;4.80;;;3.98;;
63975;SDS011;50167;47.958;21.780;2023-06-26T14:20:49;7.83;;;4.10;;
63975;SDS011;50167;47.958;21.780;2023-06-26T14:23:15;5.03;;;3.98;;
63975;SDS011;50167;47.958;21.780;2023-06-26T14:25:41;7.03;;;4.53;;
63975;SDS011;50167;47.958;21.780;2023-06-26T14:28:07;6.08;;;3.52;;
63975;SDS011;50167;47.958;21.780;2023-06-26T14:30:34;3.60;;;3.30;;
63975;SDS011;50167;47.958;21.780;2023-06-26T14:33:00;7.58;;;3.90;;
63975;SDS011;50167;47.958;21.780;2023-06-26T14:35:26;7.75;;;3.77;;
63975;SDS011;50167;47.958;21.780;2023-06-26T14:37:54;15.95;;;4.60;;
63975;SDS011;50167;47.958;21.780;2023-06-26T14:40:21;4.58;;;3.45;;
63975;SDS011;50167;47.958;21.780;2023-06-26T14:42:49;5.33;;;3.80;;
63975;SDS011;50167;47.958;21.780;2023-06-26T14:45:15;6.08;;;3.75;;
63975;SDS011;50167;47.958;21.780;2023-06-26T14:47:41;4.50;;;3.52;;
63975;SDS011;50167;47.958;21.780;2023-06-26T14:50:07;10.80;;;3.50;;
63975;SDS011;50167;47.958;21.780;2023-06-26T14:52:35;4.75;;;3.65;;
63975;SDS011;50167;47.958;21.780;2023-06-26T14:55:01;4.35;;;3.50;;
63975;SDS011;50167;47.958;21.780;2023-06-26T14:57:28;4.37;;;3.65;;
63975;SDS011;50167;47.958;21.780;2023-06-26T14:59:55;3.92;;;3.40;;
63975;SDS011;50167;47.958;21.780;2023-06-26T15:02:22;4.15;;;3.75;;
63975;SDS011;50167;47.958;21.780;2023-06-26T15:04:48;4.85;;;3.75;;
63975;SDS011;50167;47.958;21.780;2023-06-26T15:07:14;6.78;;;3.60;;
63975;SDS011;50167;47.958;21.780;2023-06-26T15:09:40;6.35;;;3.50;;
63975;SDS011;50167;47.958;21.780;2023-06-26T15:12:07;7.45;;;3.30;;
63975;SDS011;50167;47.958;21.780;2023-06-26T15:14:33;4.25;;;3.55;;